sensor_id;sensor_type;location;lat;lon;timestamp;pressure;altitude;pressure_sealevel;temperature;humidity
29825;BME280;16713;52.916;12.834;2023-04-07T00:01:46;101429.00;;;1.96;62.53
29825;BME280;16713;52.916;12.834;2023-04-07T00:04:13;101421.75;;;1.87;62.43
29825;BME280;16713;52.916;12.834;2023-04-07T00:06:39;101433.75;;;1.71;62.67
29825;BME280;16713;52.916;12.834;2023-04-07T00:09:06;101426.66;;;1.85;63.11
29825;BME280;16713;52.916;12.834;2023-04-07T00:11:32;101431.94;;;2.10;61.75
29825;BME280;16713;52.916;12.834;2023-04-07T00:13:59;101426.34;;;1.91;62.03
29825;BME280;16713;52.916;12.834;2023-04-07T00:16:25;101424.25;;;1.83;62.36
29825;BME280;16713;52.916;12.834;2023-04-07T00:18:52;101416.03;;;1.98;62.65
29825;BME280;16713;52.916;12.834;2023-04-07T00:21:19;101416.69;;;2.24;61.98
29825;BME280;16713;52.916;12.834;2023-04-07T00:23:45;101415.47;;;2.40;61.71
29825;BME280;16713;52.916;12.834;2023-04-07T00:26:12;101416.22;;;2.51;61.36
29825;BME280;16713;52.916;12.834;2023-04-07T00:28:39;101420.50;;;2.57;61.20
29825;BME280;16713;52.916;12.834;2023-04-07T00:31:05;101423.50;;;2.55;60.76
29825;BME280;16713;52.916;12.834;2023-04-07T00:33:32;101419.50;;;2.48;61.20
29825;BME280;16713;52.916;12.834;2023-04-07T00:35:58;101421.41;;;2.47;60.67
29825;BME280;16713;52.916;12.834;2023-04-07T00:38:25;101413.53;;;2.51;60.87
29825;BME280;16713;52.916;12.834;2023-04-07T00:40:57;101422.97;;;2.53;60.59
29825;BME280;16713;52.916;12.834;2023-04-07T00:43:25;101414.59;;;2.50;60.50
29825;BME280;16713;52.916;12.834;2023-04-07T00:45:52;101410.56;;;2.47;60.59
29825;BME280;16713;52.916;12.834;2023-04-07T00:48:19;101409.75;;;2.47;61.11
29825;BME280;16713;52.916;12.834;2023-04-07T00:50:46;101409.72;;;2.52;60.37
29825;BME280;16713;52.916;12.834;2023-04-07T00:53:13;101414.38;;;2.46;61.02
29825;BME280;16713;52.916;12.834;2023-04-07T00:55:39;101408.47;;;2.39;60.83
29825;BME280;16713;52.916;12.834;2023-04-07T00:58:06;101406.88;;;2.38;61.09
29825;BME280;16713;52.916;12.834;2023-04-07T01:00:44;101406.25;;;2.46;61.13
29825;BME280;16713;52.916;12.834;2023-04-07T01:03:25;101404.69;;;2.35;60.38
29825;BME280;16713;52.916;12.834;2023-04-07T01:05:59;101404.09;;;2.43;60.19
29825;BME280;16713;52.916;12.834;2023-04-07T01:13:40;101403.81;;;2.45;61.12
29825;BME280;16713;52.916;12.834;2023-04-07T01:16:30;101397.69;;;2.34;61.06
29825;BME280;16713;52.916;12.834;2023-04-07T01:19:03;101394.16;;;2.34;60.27
29825;BME280;16713;52.916;12.834;2023-04-07T01:21:35;101385.97;;;2.44;60.28
29825;BME280;16713;52.916;12.834;2023-04-07T01:26:43;101390.28;;;2.45;59.94
29825;BME280;16713;52.916;12.834;2023-04-07T01:29:29;101390.41;;;2.30;60.34
29825;BME280;16713;52.916;12.834;2023-04-07T01:31:59;101383.97;;;2.21;60.93
29825;BME280;16713;52.916;12.834;2023-04-07T01:34:28;101376.91;;;2.25;61.15
29825;BME280;16713;52.916;12.834;2023-04-07T01:36:57;101375.81;;;2.26;60.51
29825;BME280;16713;52.916;12.834;2023-04-07T01:39:26;101380.19;;;2.22;61.17
29825;BME280;16713;52.916;12.834;2023-04-07T01:41:54;101379.22;;;2.08;61.43
29825;BME280;16713;52.916;12.834;2023-04-07T01:44:21;101363.47;;;2.15;61.29
29825;BME280;16713;52.916;12.834;2023-04-07T01:46:48;101370.78;;;2.14;60.95
29825;BME280;16713;52.916;12.834;2023-04-07T01:49:18;101371.91;;;2.08;60.43
29825;BME280;16713;52.916;12.834;2023-04-07T01:51:45;101376.00;;;1.95;60.87
29825;BME280;16713;52.916;12.834;2023-04-07T01:54:16;101372.84;;;1.83;60.87
29825;BME280;16713;52.916;12.834;2023-04-07T01:56:44;101372.13;;;1.68;61.05
29825;BME280;16713;52.916;12.834;2023-04-07T01:59:10;101371.25;;;1.77;61.77
29825;BME280;16713;52.916;12.834;2023-04-07T02:01:37;101371.88;;;1.64;61.50
29825;BME280;16713;52.916;12.834;2023-04-07T02:07:02;101372.97;;;1.63;61.88
29825;BME280;16713;52.916;12.834;2023-04-07T02:09:29;101366.84;;;1.48;61.88
29825;BME280;16713;52.916;12.834;2023-04-07T02:11:59;101372.44;;;1.56;61.90
29825;BME280;16713;52.916;12.834;2023-04-07T02:14:26;101366.56;;;1.49;61.79
29825;BME280;16713;52.916;12.834;2023-04-07T02:16:53;101370.91;;;1.40;61.88
29825;BME280;16713;52.916;12.834;2023-04-07T02:19:21;101358.53;;;1.29;62.05
29825;BME280;16713;52.916;12.834;2023-04-07T02:21:49;101358.47;;;1.44;62.16
29825;BME280;16713;52.916;12.834;2023-04-07T02:24:19;101356.28;;;1.51;62.09
29825;BME280;16713;52.916;12.834;2023-04-07T02:26:47;101354.88;;;1.59;62.17
29825;BME280;16713;52.916;12.834;2023-04-07T02:29:13;101367.84;;;1.62;62.05
29825;BME280;16713;52.916;12.834;2023-04-07T02:31:40;101353.13;;;1.29;62.38
29825;BME280;16713;52.916;12.834;2023-04-07T02:34:06;101356.41;;;1.16;63.14
29825;BME280;16713;52.916;12.834;2023-04-07T02:36:33;101350.22;;;1.16;63.20
29825;BME280;16713;52.916;12.834;2023-04-07T02:38:59;101352.38;;;1.14;62.75
29825;BME280;16713;52.916;12.834;2023-04-07T02:41:26;101348.94;;;0.98;63.54
29825;BME280;16713;52.916;12.834;2023-04-07T02:43:52;101349.50;;;0.95;63.73
29825;BME280;16713;52.916;12.834;2023-04-07T02:46:19;101347.88;;;0.84;64.29
29825;BME280;16713;52.916;12.834;2023-04-07T02:48:46;101354.94;;;0.80;64.40
29825;BME280;16713;52.916;12.834;2023-04-07T02:51:12;101347.69;;;0.55;64.48
29825;BME280;16713;52.916;12.834;2023-04-07T02:53:38;101344.97;;;0.55;65.27
29825;BME280;16713;52.916;12.834;2023-04-07T02:56:05;101349.81;;;0.74;64.57
29825;BME280;16713;52.916;12.834;2023-04-07T02:58:32;101354.38;;;0.88;64.93
29825;BME280;16713;52.916;12.834;2023-04-07T03:00:58;101358.63;;;1.09;64.74
29825;BME280;16713;52.916;12.834;2023-04-07T03:03:25;101355.13;;;1.04;64.10
29825;BME280;16713;52.916;12.834;2023-04-07T03:05:51;101346.00;;;0.80;64.66
29825;BME280;16713;52.916;12.834;2023-04-07T03:08:17;101340.91;;;0.73;64.26
29825;BME280;16713;52.916;12.834;2023-04-07T03:10:44;101345.16;;;0.94;64.51
29825;BME280;16713;52.916;12.834;2023-04-07T03:13:11;101347.00;;;1.04;64.20
29825;BME280;16713;52.916;12.834;2023-04-07T03:15:41;101348.06;;;1.18;64.51
29825;BME280;16713;52.916;12.834;2023-04-07T03:18:08;101344.75;;;1.31;64.42
29825;BME280;16713;52.916;12.834;2023-04-07T03:20:35;101352.38;;;1.19;63.75
29825;BME280;16713;52.916;12.834;2023-04-07T03:23:01;101346.75;;;1.05;64.80
29825;BME280;16713;52.916;12.834;2023-04-07T03:25:28;101346.75;;;1.05;64.39
29825;BME280;16713;52.916;12.834;2023-04-07T03:27:54;101353.22;;;1.04;64.20
29825;BME280;16713;52.916;12.834;2023-04-07T03:30:21;101347.75;;;1.24;64.24
29825;BME280;16713;52.916;12.834;2023-04-07T03:32:47;101345.38;;;1.13;64.36
29825;BME280;16713;52.916;12.834;2023-04-07T03:35:14;101343.16;;;1.25;64.38
29825;BME280;16713;52.916;12.834;2023-04-07T03:37:40;101339.91;;;1.23;63.56
29825;BME280;16713;52.916;12.834;2023-04-07T03:40:07;101342.63;;;1.23;63.99
29825;BME280;16713;52.916;12.834;2023-04-07T03:42:33;101339.13;;;1.22;63.80
29825;BME280;16713;52.916;12.834;2023-04-07T03:45:00;101341.56;;;1.24;64.33
29825;BME280;16713;52.916;12.834;2023-04-07T03:47:26;101346.69;;;1.20;64.46
29825;BME280;16713;52.916;12.834;2023-04-07T03:49:53;101341.25;;;1.30;63.88
29825;BME280;16713;52.916;12.834;2023-04-07T03:52:19;101336.75;;;1.06;64.61
29825;BME280;16713;52.916;12.834;2023-04-07T03:54:46;101335.13;;;1.10;65.13
29825;BME280;16713;52.916;12.834;2023-04-07T03:57:12;101338.03;;;1.18;64.66
29825;BME280;16713;52.916;12.834;2023-04-07T03:59:39;101332.38;;;1.15;64.35
29825;BME280;16713;52.916;12.834;2023-04-07T04:02:05;101333.50;;;1.09;64.25
29825;BME280;16713;52.916;12.834;2023-04-07T04:04:32;101334.34;;;0.99;64.25
29825;BME280;16713;52.916;12.834;2023-04-07T04:06:58;101342.53;;;0.79;64.93
29825;BME280;16713;52.916;12.834;2023-04-07T04:09:25;101333.41;;;0.55;65.42
29825;BME280;16713;52.916;12.834;2023-04-07T04:11:51;101333.69;;;0.48;65.65
29825;BME280;16713;52.916;12.834;2023-04-07T04:14:18;101337.41;;;0.68;65.77
29825;BME280;16713;52.916;12.834;2023-04-07T04:16:44;101340.41;;;0.56;65.48
29825;BME280;16713;52.916;12.834;2023-04-07T04:19:11;101336.06;;;0.60;65.11
29825;BME280;16713;52.916;12.834;2023-04-07T04:21:37;101339.84;;;0.54;65.45
29825;BME280;16713;52.916;12.834;2023-04-07T04:24:04;101345.81;;;0.46;65.54
29825;BME280;16713;52.916;12.834;2023-04-07T04:26:30;101342.31;;;0.40;66.04
29825;BME280;16713;52.916;12.834;2023-04-07T04:28:57;101349.31;;;0.31;65.83
29825;BME280;16713;52.916;12.834;2023-04-07T04:31:23;101353.38;;;0.24;66.33
29825;BME280;16713;52.916;12.834;2023-04-07T04:33:50;101353.94;;;0.26;66.02
29825;BME280;16713;52.916;12.834;2023-04-07T04:36:18;101349.84;;;0.18;66.87
29825;BME280;16713;52.916;12.834;2023-04-07T04:38:44;101354.72;;;0.26;66.53
29825;BME280;16713;52.916;12.834;2023-04-07T04:41:11;101347.72;;;0.30;66.54
29825;BME280;16713;52.916;12.834;2023-04-07T04:43:37;101349.06;;;0.18;66.63
29825;BME280;16713;52.916;12.834;2023-04-07T04:46:04;101352.81;;;0.17;66.00
29825;BME280;16713;52.916;12.834;2023-04-07T04:48:30;101349.59;;;-0.05;66.97
29825;BME280;16713;52.916;12.834;2023-04-07T04:50:57;101348.50;;;0.01;67.42
29825;BME280;16713;52.916;12.834;2023-04-07T04:53:23;101353.63;;;-0.08;67.44
29825;BME280;16713;52.916;12.834;2023-04-07T04:55:50;101352.81;;;-0.13;68.36
29825;BME280;16713;52.916;12.834;2023-04-07T04:58:19;101346.09;;;-0.11;67.89
29825;BME280;16713;52.916;12.834;2023-04-07T05:00:46;101350.13;;;-0.08;67.70
29825;BME280;16713;52.916;12.834;2023-04-07T05:03:12;101353.06;;;-0.20;67.51
29825;BME280;16713;52.916;12.834;2023-04-07T05:05:39;101342.59;;;-0.06;67.32
29825;BME280;16713;52.916;12.834;2023-04-07T05:08:05;101345.00;;;-0.10;67.74
29825;BME280;16713;52.916;12.834;2023-04-07T05:10:32;101343.91;;;-0.04;68.20
29825;BME280;16713;52.916;12.834;2023-04-07T05:12:59;101347.16;;;-0.07;67.96
29825;BME280;16713;52.916;12.834;2023-04-07T05:15:25;101347.97;;;0.04;67.19
29825;BME280;16713;52.916;12.834;2023-04-07T05:17:52;101346.88;;;-0.15;67.86
29825;BME280;16713;52.916;12.834;2023-04-07T05:20:18;101346.34;;;-0.22;67.86
29825;BME280;16713;52.916;12.834;2023-04-07T05:22:45;101353.38;;;-0.06;68.18
29825;BME280;16713;52.916;12.834;2023-04-07T05:25:11;101350.66;;;-0.21;67.79
29825;BME280;16713;52.916;12.834;2023-04-07T05:27:38;101361.72;;;0.02;68.28
29825;BME280;16713;52.916;12.834;2023-04-07T05:30:05;101361.44;;;-0.11;68.28
29825;BME280;16713;52.916;12.834;2023-04-07T05:32:31;101360.09;;;-0.04;68.64
29825;BME280;16713;52.916;12.834;2023-04-07T05:34:58;101365.50;;;0.11;68.35
29825;BME280;16713;52.916;12.834;2023-04-07T05:37:24;101368.22;;;0.21;67.74
29825;BME280;16713;52.916;12.834;2023-04-07T05:39:51;101369.00;;;0.27;68.00
29825;BME280;16713;52.916;12.834;2023-04-07T05:42:17;101357.97;;;0.43;67.46
29825;BME280;16713;52.916;12.834;2023-04-07T05:44:44;101362.03;;;0.31;68.14
29825;BME280;16713;52.916;12.834;2023-04-07T05:47:10;101363.09;;;0.40;67.62
29825;BME280;16713;52.916;12.834;2023-04-07T05:49:37;101357.69;;;0.20;68.33
29825;BME280;16713;52.916;12.834;2023-04-07T05:52:06;101365.78;;;0.20;68.56
29825;BME280;16713;52.916;12.834;2023-04-07T05:54:32;101367.94;;;0.23;70.15
29825;BME280;16713;52.916;12.834;2023-04-07T05:56:58;101372.25;;;0.29;69.92
29825;BME280;16713;52.916;12.834;2023-04-07T05:59:25;101373.06;;;0.39;69.04
29825;BME280;16713;52.916;12.834;2023-04-07T06:01:51;101374.66;;;0.76;68.84
29825;BME280;16713;52.916;12.834;2023-04-07T06:04:18;101374.09;;;0.74;68.62
29825;BME280;16713;52.916;12.834;2023-04-07T06:06:45;101375.19;;;0.68;68.73
29825;BME280;16713;52.916;12.834;2023-04-07T06:09:11;101374.34;;;0.87;68.42
29825;BME280;16713;52.916;12.834;2023-04-07T06:11:38;101380.25;;;0.94;68.09
29825;BME280;16713;52.916;12.834;2023-04-07T06:14:04;101383.22;;;1.03;68.45
29825;BME280;16713;52.916;12.834;2023-04-07T06:16:31;101389.97;;;1.00;68.75
29825;BME280;16713;52.916;12.834;2023-04-07T06:18:57;101382.38;;;1.12;67.91
29825;BME280;16713;52.916;12.834;2023-04-07T06:21:24;101388.53;;;1.23;67.68
29825;BME280;16713;52.916;12.834;2023-04-07T06:23:52;101387.75;;;1.22;67.74
29825;BME280;16713;52.916;12.834;2023-04-07T06:26:19;101387.47;;;1.29;67.81
29825;BME280;16713;52.916;12.834;2023-04-07T06:28:46;101383.22;;;1.66;66.99
29825;BME280;16713;52.916;12.834;2023-04-07T06:31:13;101393.94;;;1.86;67.60
29825;BME280;16713;52.916;12.834;2023-04-07T06:33:39;101383.56;;;2.03;67.28
29825;BME280;16713;52.916;12.834;2023-04-07T06:36:06;101384.22;;;2.24;66.21
29825;BME280;16713;52.916;12.834;2023-04-07T06:38:33;101388.44;;;1.96;65.57
29825;BME280;16713;52.916;12.834;2023-04-07T06:40:59;101396.66;;;1.81;65.95
29825;BME280;16713;52.916;12.834;2023-04-07T06:43:26;101387.94;;;1.94;65.50
29825;BME280;16713;52.916;12.834;2023-04-07T06:45:52;101386.06;;;2.29;66.30
29825;BME280;16713;52.916;12.834;2023-04-07T06:48:19;101388.09;;;2.47;64.93
29825;BME280;16713;52.916;12.834;2023-04-07T06:50:46;101391.00;;;2.55;65.04
29825;BME280;16713;52.916;12.834;2023-04-07T06:53:14;101392.72;;;2.46;64.67
29825;BME280;16713;52.916;12.834;2023-04-07T06:55:40;101392.09;;;2.83;64.06
29825;BME280;16713;52.916;12.834;2023-04-07T06:58:07;101392.94;;;3.07;63.19
29825;BME280;16713;52.916;12.834;2023-04-07T07:00:35;101399.59;;;2.91;62.59
29825;BME280;16713;52.916;12.834;2023-04-07T07:03:01;101394.81;;;3.30;61.61
29825;BME280;16713;52.916;12.834;2023-04-07T07:05:28;101395.00;;;3.15;61.54
29825;BME280;16713;52.916;12.834;2023-04-07T07:07:55;101407.00;;;3.32;61.39
29825;BME280;16713;52.916;12.834;2023-04-07T07:10:21;101415.09;;;3.56;60.87
29825;BME280;16713;52.916;12.834;2023-04-07T07:12:48;101406.00;;;3.23;60.90
29825;BME280;16713;52.916;12.834;2023-04-07T07:15:15;101411.38;;;3.52;60.92
29825;BME280;16713;52.916;12.834;2023-04-07T07:17:41;101403.78;;;3.49;59.95
29825;BME280;16713;52.916;12.834;2023-04-07T07:20:08;101413.94;;;3.62;59.01
29825;BME280;16713;52.916;12.834;2023-04-07T07:22:35;101402.59;;;3.60;58.97
29825;BME280;16713;52.916;12.834;2023-04-07T07:25:02;101411.75;;;3.64;58.71
29825;BME280;16713;52.916;12.834;2023-04-07T07:27:29;101418.53;;;3.43;57.70
29825;BME280;16713;52.916;12.834;2023-04-07T07:29:55;101417.88;;;3.51;58.19
29825;BME280;16713;52.916;12.834;2023-04-07T07:32:22;101430.50;;;3.84;58.12
29825;BME280;16713;52.916;12.834;2023-04-07T07:34:48;101421.41;;;3.94;58.21
29825;BME280;16713;52.916;12.834;2023-04-07T07:37:15;101421.25;;;3.85;57.54
29825;BME280;16713;52.916;12.834;2023-04-07T07:39:41;101428.38;;;4.00;57.26
29825;BME280;16713;52.916;12.834;2023-04-07T07:42:08;101429.00;;;4.10;57.20
29825;BME280;16713;52.916;12.834;2023-04-07T07:44:34;101425.19;;;4.30;57.42
29825;BME280;16713;52.916;12.834;2023-04-07T07:47:01;101427.13;;;3.92;57.11
29825;BME280;16713;52.916;12.834;2023-04-07T07:49:27;101428.66;;;4.17;56.22
29825;BME280;16713;52.916;12.834;2023-04-07T07:51:54;101440.41;;;3.94;56.82
29825;BME280;16713;52.916;12.834;2023-04-07T07:54:21;101436.97;;;4.07;57.56
29825;BME280;16713;52.916;12.834;2023-04-07T07:56:47;101441.50;;;4.11;56.82
29825;BME280;16713;52.916;12.834;2023-04-07T07:59:14;101448.47;;;4.54;55.40
29825;BME280;16713;52.916;12.834;2023-04-07T08:01:43;101449.78;;;4.57;55.75
29825;BME280;16713;52.916;12.834;2023-04-07T08:04:09;101450.78;;;4.42;55.02
29825;BME280;16713;52.916;12.834;2023-04-07T08:06:36;101445.44;;;4.37;55.21
29825;BME280;16713;52.916;12.834;2023-04-07T08:09:02;101447.13;;;3.96;54.26
29825;BME280;16713;52.916;12.834;2023-04-07T08:11:29;101457.81;;;4.48;54.81
29825;BME280;16713;52.916;12.834;2023-04-07T08:13:56;101455.44;;;4.60;54.76
29825;BME280;16713;52.916;12.834;2023-04-07T08:16:22;101451.97;;;4.73;54.17
29825;BME280;16713;52.916;12.834;2023-04-07T08:18:49;101454.06;;;4.76;54.84
29825;BME280;16713;52.916;12.834;2023-04-07T08:21:15;101456.88;;;4.71;54.66
29825;BME280;16713;52.916;12.834;2023-04-07T08:23:42;101460.72;;;4.70;54.92
29825;BME280;16713;52.916;12.834;2023-04-07T08:26:08;101460.25;;;4.96;54.24
29825;BME280;16713;52.916;12.834;2023-04-07T08:28:35;101464.84;;;5.14;53.77
29825;BME280;16713;52.916;12.834;2023-04-07T08:31:01;101460.84;;;4.79;53.64
29825;BME280;16713;52.916;12.834;2023-04-07T08:33:28;101466.22;;;4.98;53.70
29825;BME280;16713;52.916;12.834;2023-04-07T08:35:55;101471.47;;;5.08;53.07
29825;BME280;16713;52.916;12.834;2023-04-07T08:38:22;101466.44;;;5.01;54.01
29825;BME280;16713;52.916;12.834;2023-04-07T08:40:59;101464.94;;;5.09;54.29
29825;BME280;16713;52.916;12.834;2023-04-07T08:43:27;101471.53;;;5.62;54.69
29825;BME280;16713;52.916;12.834;2023-04-07T08:45:55;101467.31;;;5.56;54.58
29825;BME280;16713;52.916;12.834;2023-04-07T08:48:23;101471.78;;;5.06;54.51
29825;BME280;16713;52.916;12.834;2023-04-07T08:50:54;101474.72;;;5.23;54.46
29825;BME280;16713;52.916;12.834;2023-04-07T08:53:27;101470.44;;;5.04;55.37
29825;BME280;16713;52.916;12.834;2023-04-07T08:55:57;101475.56;;;4.92;55.84
29825;BME280;16713;52.916;12.834;2023-04-07T08:58:26;101476.91;;;5.08;56.41
29825;BME280;16713;52.916;12.834;2023-04-07T09:00:52;101475.34;;;4.88;57.46
29825;BME280;16713;52.916;12.834;2023-04-07T09:03:19;101471.81;;;4.87;57.15
29825;BME280;16713;52.916;12.834;2023-04-07T09:05:48;101468.00;;;5.21;57.06
29825;BME280;16713;52.916;12.834;2023-04-07T09:08:16;101471.59;;;4.84;56.14
29825;BME280;16713;52.916;12.834;2023-04-07T09:10:43;101472.66;;;4.69;56.86
29825;BME280;16713;52.916;12.834;2023-04-07T09:13:09;101477.53;;;5.05;56.68
29825;BME280;16713;52.916;12.834;2023-04-07T09:15:36;101474.69;;;5.10;56.64
29825;BME280;16713;52.916;12.834;2023-04-07T09:18:04;101478.06;;;5.34;57.20
29825;BME280;16713;52.916;12.834;2023-04-07T09:20:57;101480.78;;;4.88;56.82
29825;BME280;16713;52.916;12.834;2023-04-07T09:23:33;101473.63;;;4.78;57.14
29825;BME280;16713;52.916;12.834;2023-04-07T09:28:45;101475.81;;;5.09;57.54
29825;BME280;16713;52.916;12.834;2023-04-07T09:31:12;101487.41;;;5.28;57.80
29825;BME280;16713;52.916;12.834;2023-04-07T09:33:39;101489.63;;;5.26;58.29
29825;BME280;16713;52.916;12.834;2023-04-07T09:36:06;101487.44;;;5.41;58.67
29825;BME280;16713;52.916;12.834;2023-04-07T09:38:34;101492.88;;;5.55;58.94
29825;BME280;16713;52.916;12.834;2023-04-07T09:41:08;101487.84;;;5.62;59.24
29825;BME280;16713;52.916;12.834;2023-04-07T09:43:37;101490.69;;;5.70;59.62
29825;BME280;16713;52.916;12.834;2023-04-07T09:46:15;101485.66;;;5.64;60.17
29825;BME280;16713;52.916;12.834;2023-04-07T09:48:45;101488.44;;;5.45;60.70
29825;BME280;16713;52.916;12.834;2023-04-07T09:51:17;101486.03;;;5.57;61.23
29825;BME280;16713;52.916;12.834;2023-04-07T09:53:48;101486.25;;;5.61;61.42
29825;BME280;16713;52.916;12.834;2023-04-07T09:56:19;101480.50;;;5.76;62.29
29825;BME280;16713;52.916;12.834;2023-04-07T09:58:50;101470.50;;;5.58;62.84
29825;BME280;16713;52.916;12.834;2023-04-07T10:01:20;101480.31;;;5.59;63.18
29825;BME280;16713;52.916;12.834;2023-04-07T10:03:47;101483.94;;;5.81;63.22
29825;BME280;16713;52.916;12.834;2023-04-07T10:06:16;101479.41;;;5.77;62.78
29825;BME280;16713;52.916;12.834;2023-04-07T10:08:43;101486.13;;;5.79;63.33
29825;BME280;16713;52.916;12.834;2023-04-07T10:11:09;101483.41;;;5.79;63.20
29825;BME280;16713;52.916;12.834;2023-04-07T10:13:38;101475.53;;;5.24;64.17
29825;BME280;16713;52.916;12.834;2023-04-07T10:16:06;101483.63;;;5.83;63.61
29825;BME280;16713;52.916;12.834;2023-04-07T10:18:35;101482.00;;;5.55;63.19
29825;BME280;16713;52.916;12.834;2023-04-07T10:21:04;101483.91;;;5.68;63.60
29825;BME280;16713;52.916;12.834;2023-04-07T10:26:58;101478.88;;;5.61;64.21
29825;BME280;16713;52.916;12.834;2023-04-07T10:29:28;101469.38;;;5.05;66.42
29825;BME280;16713;52.916;12.834;2023-04-07T10:31:58;101470.09;;;5.24;66.25
29825;BME280;16713;52.916;12.834;2023-04-07T10:37:17;101479.28;;;5.41;66.97
29825;BME280;16713;52.916;12.834;2023-04-07T10:39:50;101482.69;;;5.47;66.83
29825;BME280;16713;52.916;12.834;2023-04-07T10:45:03;101475.25;;;5.66;67.13
29825;BME280;16713;52.916;12.834;2023-04-07T10:47:30;101475.44;;;5.69;66.75
29825;BME280;16713;52.916;12.834;2023-04-07T10:50:21;101481.38;;;5.58;67.35
29825;BME280;16713;52.916;12.834;2023-04-07T10:53:09;101477.78;;;5.62;67.15
29825;BME280;16713;52.916;12.834;2023-04-07T10:55:44;101465.69;;;5.55;67.48
29825;BME280;16713;52.916;12.834;2023-04-07T10:58:29;101463.72;;;5.15;69.39
29825;BME280;16713;52.916;12.834;2023-04-07T11:03:23;101474.25;;;5.35;69.05
29825;BME280;16713;52.916;12.834;2023-04-07T11:05:50;101468.00;;;5.21;69.54
29825;BME280;16713;52.916;12.834;2023-04-07T11:08:33;101475.44;;;5.29;69.05
29825;BME280;16713;52.916;12.834;2023-04-07T11:10:59;101472.38;;;5.03;69.23
29825;BME280;16713;52.916;12.834;2023-04-07T11:13:26;101465.75;;;5.09;69.11
29825;BME280;16713;52.916;12.834;2023-04-07T11:15:53;101466.13;;;5.03;70.13
29825;BME280;16713;52.916;12.834;2023-04-07T11:18:21;101462.66;;;4.83;70.30
29825;BME280;16713;52.916;12.834;2023-04-07T11:20:54;101469.50;;;5.27;70.06
29825;BME280;16713;52.916;12.834;2023-04-07T11:23:21;101467.28;;;5.29;69.80
29825;BME280;16713;52.916;12.834;2023-04-07T11:25:50;101469.72;;;5.44;69.68
29825;BME280;16713;52.916;12.834;2023-04-07T11:28:17;101467.78;;;5.71;69.64
29825;BME280;16713;52.916;12.834;2023-04-07T11:30:46;101464.41;;;5.07;70.65
29825;BME280;16713;52.916;12.834;2023-04-07T11:33:15;101462.34;;;5.17;71.38
29825;BME280;16713;52.916;12.834;2023-04-07T11:38:24;101450.06;;;4.55;74.18
29825;BME280;16713;52.916;12.834;2023-04-07T11:40:53;101458.31;;;4.82;75.17
29825;BME280;16713;52.916;12.834;2023-04-07T11:43:24;101457.59;;;5.09;74.77
29825;BME280;16713;52.916;12.834;2023-04-07T11:46:11;101456.34;;;4.88;74.74
29825;BME280;16713;52.916;12.834;2023-04-07T11:48:39;101458.88;;;4.98;75.21
29825;BME280;16713;52.916;12.834;2023-04-07T11:51:14;101448.84;;;5.12;75.30
29825;BME280;16713;52.916;12.834;2023-04-07T11:53:41;101453.78;;;5.24;74.91
29825;BME280;16713;52.916;12.834;2023-04-07T11:56:10;101454.03;;;4.95;75.83
29825;BME280;16713;52.916;12.834;2023-04-07T11:58:48;101451.19;;;4.86;76.19
29825;BME280;16713;52.916;12.834;2023-04-07T12:01:15;101458.81;;;5.17;75.81
29825;BME280;16713;52.916;12.834;2023-04-07T12:03:57;101452.16;;;5.09;76.65
29825;BME280;16713;52.916;12.834;2023-04-07T12:06:32;101441.00;;;4.78;77.24
29825;BME280;16713;52.916;12.834;2023-04-07T12:09:01;101440.66;;;4.66;78.17
29825;BME280;16713;52.916;12.834;2023-04-07T12:11:28;101439.81;;;4.52;78.51
29825;BME280;16713;52.916;12.834;2023-04-07T12:13:55;101441.63;;;4.38;79.31
29825;BME280;16713;52.916;12.834;2023-04-07T12:16:22;101441.50;;;4.11;80.09
29825;BME280;16713;52.916;12.834;2023-04-07T12:18:50;101445.16;;;4.39;79.76
29825;BME280;16713;52.916;12.834;2023-04-07T12:21:19;101442.16;;;4.22;80.75
29825;BME280;16713;52.916;12.834;2023-04-07T12:23:46;101438.28;;;4.09;80.80
29825;BME280;16713;52.916;12.834;2023-04-07T12:26:14;101433.41;;;4.25;81.30
29825;BME280;16713;52.916;12.834;2023-04-07T12:28:40;101440.88;;;4.33;81.20
29825;BME280;16713;52.916;12.834;2023-04-07T12:31:07;101436.09;;;4.48;80.95
29825;BME280;16713;52.916;12.834;2023-04-07T12:33:33;101440.66;;;4.66;80.98
29825;BME280;16713;52.916;12.834;2023-04-07T12:36:00;101438.69;;;4.53;81.58
29825;BME280;16713;52.916;12.834;2023-04-07T12:38:26;101432.47;;;4.85;81.44
29825;BME280;16713;52.916;12.834;2023-04-07T12:40:54;101435.06;;;4.76;80.93
29825;BME280;16713;52.916;12.834;2023-04-07T12:43:20;101432.31;;;5.09;80.17
29825;BME280;16713;52.916;12.834;2023-04-07T12:45:47;101436.06;;;5.13;79.84
29825;BME280;16713;52.916;12.834;2023-04-07T12:48:13;101433.41;;;5.08;79.36
29825;BME280;16713;52.916;12.834;2023-04-07T12:50:41;101435.81;;;4.63;79.78
29825;BME280;16713;52.916;12.834;2023-04-07T12:53:07;101426.34;;;4.42;80.84
29825;BME280;16713;52.916;12.834;2023-04-07T12:55:34;101437.00;;;4.89;81.01
29825;BME280;16713;52.916;12.834;2023-04-07T12:58:01;101427.81;;;4.85;80.60
29825;BME280;16713;52.916;12.834;2023-04-07T13:00:28;101428.56;;;4.40;81.09
29825;BME280;16713;52.916;12.834;2023-04-07T13:02:55;101423.22;;;4.54;81.36
29825;BME280;16713;52.916;12.834;2023-04-07T13:05:22;101420.81;;;4.98;81.20
29825;BME280;16713;52.916;12.834;2023-04-07T13:07:48;101425.16;;;4.99;81.77
29825;BME280;16713;52.916;12.834;2023-04-07T13:10:15;101423.34;;;4.62;81.31
29825;BME280;16713;52.916;12.834;2023-04-07T13:12:41;101416.03;;;4.44;81.02
29825;BME280;16713;52.916;12.834;2023-04-07T13:15:08;101413.78;;;4.65;81.42
29825;BME280;16713;52.916;12.834;2023-04-07T13:17:35;101419.28;;;4.46;81.56
29825;BME280;16713;52.916;12.834;2023-04-07T13:20:05;101424.56;;;4.19;82.81
29825;BME280;16713;52.916;12.834;2023-04-07T13:22:32;101417.94;;;4.44;82.39